createdAt,value
2019-01-25T00:00:05.083Z,8.30
2019-01-25T00:02:33.438Z,8.83
2019-01-25T00:05:01.715Z,9.10
2019-01-25T00:07:30.278Z,9.40
2019-01-25T00:09:58.927Z,9.27
2019-01-25T00:12:27.429Z,8.37
2019-01-25T00:14:55.824Z,8.57
2019-01-25T00:17:24.113Z,8.77
2019-01-25T00:19:52.479Z,8.43
2019-01-25T00:22:20.851Z,9.00
2019-01-25T00:24:49.159Z,9.17
2019-01-25T00:27:17.515Z,9.03
2019-01-25T00:29:45.886Z,8.80
2019-01-25T00:32:14.170Z,8.50
2019-01-25T00:34:42.487Z,8.17
2019-01-25T00:37:10.880Z,8.57
2019-01-25T00:39:39.233Z,8.60
2019-01-25T00:42:07.601Z,8.70
2019-01-25T00:44:35.962Z,8.70
2019-01-25T00:47:04.319Z,9.43
2019-01-25T00:49:32.799Z,9.27
2019-01-25T00:52:01.173Z,8.13
2019-01-25T00:54:29.472Z,8.93
2019-01-25T00:56:57.843Z,8.83
2019-01-25T00:59:26.225Z,8.67
2019-01-25T01:01:54.638Z,8.67
2019-01-25T01:04:22.918Z,8.87
2019-01-25T01:06:51.223Z,9.13
2019-01-25T01:09:19.536Z,9.20
2019-01-25T01:11:47.880Z,8.67
2019-01-25T01:14:16.202Z,8.27
2019-01-25T01:16:44.483Z,8.60
2019-01-25T01:19:12.762Z,8.43
2019-01-25T01:21:42.986Z,8.57
2019-01-25T01:24:11.083Z,8.70
2019-01-25T01:26:39.355Z,7.90
2019-01-25T01:29:07.660Z,8.70
2019-01-25T01:31:36.010Z,8.40
2019-01-25T01:34:04.362Z,8.83
2019-01-25T01:36:32.743Z,8.17
2019-01-25T01:39:01.018Z,8.73
2019-01-25T01:41:29.294Z,7.87
2019-01-25T01:43:57.613Z,8.73
2019-01-25T01:46:26.043Z,8.37
2019-01-25T01:48:54.395Z,8.93
2019-01-25T01:51:22.705Z,8.30
2019-01-25T01:53:51.055Z,8.70
2019-01-25T01:56:19.343Z,8.43
2019-01-25T01:58:47.636Z,8.43
2019-01-25T02:01:15.938Z,8.03
2019-01-25T02:03:44.293Z,8.43
2019-01-25T02:06:12.587Z,7.73
2019-01-25T02:08:41.034Z,8.07
2019-01-25T02:11:09.406Z,7.60
2019-01-25T02:13:37.779Z,8.20
2019-01-25T02:16:06.066Z,7.17
2019-01-25T02:18:34.431Z,8.27
2019-01-25T02:21:02.759Z,8.50
2019-01-25T02:23:31.058Z,7.53
2019-01-25T02:25:59.430Z,8.03
2019-01-25T02:28:27.751Z,8.23
2019-01-25T02:30:56.153Z,7.43
2019-01-25T02:33:24.435Z,7.77
2019-01-25T02:35:52.727Z,7.40
2019-01-25T02:38:21.007Z,7.83
2019-01-25T02:40:49.291Z,7.40
2019-01-25T02:43:17.584Z,7.97
2019-01-25T02:45:45.867Z,7.53
2019-01-25T02:48:14.143Z,7.73
2019-01-25T02:50:42.520Z,8.27
2019-01-25T02:53:10.821Z,7.70
2019-01-25T02:55:39.173Z,7.20
2019-01-25T02:58:07.609Z,7.90
2019-01-25T03:00:36.026Z,7.67
2019-01-25T03:03:04.411Z,7.60
2019-01-25T03:05:32.781Z,7.27
2019-01-25T03:08:01.061Z,7.37
2019-01-25T03:10:29.584Z,7.30
2019-01-25T03:12:58.103Z,7.70
2019-01-25T03:15:26.899Z,8.27
2019-01-25T03:17:55.519Z,7.77
2019-01-25T03:20:23.834Z,7.60
2019-01-25T03:22:52.112Z,7.70
2019-01-25T03:25:25.351Z,7.27
2019-01-25T03:27:53.668Z,7.70
2019-01-25T03:30:23.686Z,7.20
2019-01-25T03:32:52.123Z,7.17
2019-01-25T03:35:22.523Z,8.17
2019-01-25T03:37:50.876Z,7.23
2019-01-25T03:40:21.954Z,7.10
2019-01-25T03:42:50.394Z,7.27
2019-01-25T03:45:18.907Z,6.20
2019-01-25T03:47:47.279Z,7.13
2019-01-25T03:50:27.340Z,7.37
2019-01-25T03:52:55.698Z,7.43
2019-01-25T03:55:24.329Z,6.47
2019-01-25T03:57:52.693Z,7.37
2019-01-25T04:00:26.166Z,7.30
2019-01-25T04:02:54.507Z,7.73
2019-01-25T04:05:22.813Z,7.33
2019-01-25T04:07:51.103Z,7.57
2019-01-25T04:10:22.059Z,7.07
2019-01-25T04:12:50.363Z,6.77
2019-01-25T04:15:21.278Z,6.80
2019-01-25T04:17:49.804Z,6.60
2019-01-25T04:20:22.616Z,6.77
2019-01-25T04:22:50.914Z,7.00
2019-01-25T04:25:21.230Z,6.40
2019-01-25T04:27:49.734Z,7.20
2019-01-25T04:30:20.251Z,7.87
2019-01-25T04:32:48.531Z,6.70
2019-01-25T04:35:16.849Z,7.70
2019-01-25T04:37:45.135Z,7.53
2019-01-25T04:40:15.336Z,6.17
2019-01-25T04:42:43.726Z,6.60
2019-01-25T04:45:14.429Z,6.50
2019-01-25T04:47:42.783Z,6.80
2019-01-25T04:50:14.180Z,6.13
2019-01-25T04:52:42.538Z,6.30
2019-01-25T04:55:25.629Z,6.57
2019-01-25T04:57:53.986Z,6.60
2019-01-25T05:00:25.419Z,6.40
2019-01-25T05:02:58.359Z,6.80
2019-01-25T05:05:27.269Z,5.60
2019-01-25T05:08:04.500Z,6.60
2019-01-25T05:10:32.855Z,6.27
2019-01-25T05:13:01.158Z,5.30
2019-01-25T05:15:29.531Z,6.33
2019-01-25T05:17:57.810Z,5.83
2019-01-25T05:20:26.176Z,5.80
2019-01-25T05:22:56.477Z,5.50
2019-01-25T05:25:26.524Z,5.83
2019-01-25T05:27:54.950Z,5.60
2019-01-25T05:30:24.082Z,4.83
2019-01-25T05:32:52.376Z,5.37
2019-01-25T05:35:20.681Z,4.97
2019-01-25T05:37:48.974Z,5.50
2019-01-25T05:40:26.869Z,5.40
2019-01-25T05:42:55.254Z,5.20
2019-01-25T05:45:23.565Z,5.23
2019-01-25T05:47:51.915Z,4.73
2019-01-25T05:50:20.234Z,4.93
2019-01-25T05:52:48.584Z,5.30
2019-01-25T05:55:21.744Z,4.03
2019-01-25T05:57:51.740Z,4.80
2019-01-25T06:00:21.667Z,4.63
2019-01-25T06:02:49.950Z,4.30
2019-01-25T06:05:18.278Z,3.93
2019-01-25T06:07:46.642Z,4.10
2019-01-25T06:10:14.915Z,4.37
2019-01-25T06:12:43.214Z,3.67
2019-01-25T06:15:13.204Z,3.90
2019-01-25T06:17:41.554Z,3.87
2019-01-25T06:20:11.402Z,4.30
2019-01-25T06:22:41.037Z,3.70
2019-01-25T06:25:09.402Z,3.37
2019-01-25T06:27:39.333Z,3.60
2019-01-25T06:30:13.067Z,3.33
2019-01-25T06:32:41.355Z,3.60
2019-01-25T06:35:11.266Z,3.43
2019-01-25T06:37:39.565Z,3.40
2019-01-25T06:40:15.082Z,3.30
2019-01-25T06:42:43.476Z,2.93
2019-01-25T06:45:12.394Z,3.00
2019-01-25T06:47:40.755Z,3.47
2019-01-25T06:50:11.391Z,3.10
2019-01-25T06:52:39.679Z,3.33
2019-01-25T06:55:08.394Z,3.53
2019-01-25T06:57:43.859Z,3.57
2019-01-25T07:00:18.610Z,3.10
2019-01-25T07:02:46.890Z,3.77
2019-01-25T07:05:15.203Z,2.93
2019-01-25T07:07:45.050Z,3.10
2019-01-25T07:10:16.245Z,3.17
2019-01-25T07:12:44.551Z,3.30
2019-01-25T07:15:14.855Z,3.27
2019-01-25T07:17:43.149Z,3.50
2019-01-25T07:20:14.463Z,3.20
2019-01-25T07:22:42.854Z,3.17
2019-01-25T07:25:12.633Z,3.30
2019-01-25T07:27:40.926Z,3.37
2019-01-25T07:30:12.243Z,3.47
2019-01-25T07:32:40.550Z,3.00
2019-01-25T07:35:10.073Z,3.13
2019-01-25T07:37:38.430Z,3.37
2019-01-25T07:40:08.228Z,3.27
2019-01-25T07:42:36.629Z,2.67
2019-01-25T07:45:08.325Z,3.20
2019-01-25T07:47:36.781Z,3.57
2019-01-25T07:50:08.343Z,3.43
2019-01-25T07:52:36.727Z,3.10
2019-01-25T07:55:07.880Z,3.30
2019-01-25T07:57:36.199Z,3.30
2019-01-25T08:00:07.760Z,3.60
2019-01-25T08:02:36.107Z,3.50
2019-01-25T08:05:06.345Z,3.20
2019-01-25T08:07:34.713Z,3.27
2019-01-25T08:10:04.716Z,3.30
2019-01-25T08:12:33.095Z,3.33
2019-01-25T08:15:01.413Z,3.40
2019-01-25T08:17:29.786Z,3.47
2019-01-25T08:19:59.490Z,3.43
2019-01-25T08:22:27.994Z,3.40
2019-01-25T08:24:56.344Z,3.63
2019-01-25T08:27:24.785Z,3.60
2019-01-25T08:29:53.348Z,3.17
2019-01-25T08:32:21.757Z,3.37
2019-01-25T08:34:50.189Z,3.47
2019-01-25T08:37:18.523Z,3.10
2019-01-25T08:39:46.870Z,3.23
2019-01-25T08:42:15.766Z,3.33
2019-01-25T08:44:44.390Z,2.97
2019-01-25T08:47:12.685Z,3.40
2019-01-25T08:49:41.076Z,3.17
2019-01-25T08:52:10.781Z,3.50
2019-01-25T08:54:39.532Z,3.30
2019-01-25T08:57:07.878Z,3.17
2019-01-25T08:59:36.291Z,3.23
2019-01-25T09:02:04.572Z,3.17
2019-01-25T09:04:32.946Z,3.87
2019-01-25T09:07:01.241Z,3.30
2019-01-25T09:09:29.593Z,3.40
2019-01-25T09:11:57.975Z,3.07
2019-01-25T09:14:26.256Z,3.20
2019-01-25T09:16:54.554Z,2.63
2019-01-25T09:19:23.317Z,3.03
2019-01-25T09:21:51.652Z,2.50
2019-01-25T09:24:19.962Z,3.07
2019-01-25T09:26:48.329Z,3.10
2019-01-25T09:29:16.614Z,2.80
2019-01-25T09:31:44.899Z,2.63
2019-01-25T09:34:13.203Z,2.80
2019-01-25T09:36:41.574Z,2.93
2019-01-25T09:39:10.041Z,2.73
2019-01-25T09:41:39.541Z,2.70
2019-01-25T09:44:08.102Z,3.20
2019-01-25T09:46:36.493Z,2.63
2019-01-25T09:49:04.923Z,2.80
2019-01-25T09:51:35.193Z,3.80
2019-01-25T09:54:03.288Z,4.37
2019-01-25T09:56:31.602Z,4.10
2019-01-25T09:59:00.022Z,4.20
2019-01-25T10:01:28.399Z,3.57
2019-01-25T10:03:56.714Z,3.83
2019-01-25T10:06:25.026Z,3.90
2019-01-25T10:08:53.421Z,3.50
2019-01-25T10:11:21.811Z,3.30
2019-01-25T10:13:50.227Z,3.27
2019-01-25T10:16:18.520Z,2.70
2019-01-25T10:18:46.819Z,2.97
2019-01-25T10:21:15.113Z,2.93
2019-01-25T10:23:43.492Z,3.07
2019-01-25T10:26:11.849Z,3.07
2019-01-25T10:28:40.132Z,2.90
2019-01-25T10:31:08.411Z,2.77
2019-01-25T10:33:36.770Z,2.40
2019-01-25T10:36:05.093Z,2.50
2019-01-25T10:38:33.502Z,2.70
2019-01-25T10:41:01.898Z,2.50
2019-01-25T10:43:30.263Z,2.60
2019-01-25T10:45:58.762Z,2.30
2019-01-25T10:48:27.222Z,2.37
2019-01-25T10:50:55.609Z,2.20
2019-01-25T10:53:24.132Z,2.47
2019-01-25T10:55:52.578Z,2.20
2019-01-25T10:58:21.074Z,2.43
2019-01-25T11:00:49.499Z,2.03
2019-01-25T11:03:17.971Z,2.40
2019-01-25T11:05:46.410Z,2.37
2019-01-25T11:08:14.866Z,2.33
2019-01-25T11:10:43.203Z,1.97
2019-01-25T11:13:11.563Z,1.90
2019-01-25T11:15:40.108Z,2.03
2019-01-25T11:18:08.515Z,1.90
2019-01-25T11:20:36.958Z,1.90
2019-01-25T11:23:05.348Z,1.83
2019-01-25T11:25:36.558Z,1.97
2019-01-25T11:28:05.137Z,1.90
2019-01-25T11:30:33.858Z,1.90
2019-01-25T11:33:02.407Z,1.97
2019-01-25T11:35:30.753Z,2.00
2019-01-25T11:37:59.150Z,1.70
2019-01-25T11:40:30.379Z,2.07
2019-01-25T11:42:58.722Z,1.73
2019-01-25T11:45:27.095Z,1.70
2019-01-25T11:47:55.612Z,1.80
2019-01-25T11:50:24.010Z,1.90
2019-01-25T11:52:52.405Z,1.80
2019-01-25T11:55:20.775Z,1.60
2019-01-25T11:57:49.101Z,1.90
2019-01-25T12:00:23.508Z,1.50
2019-01-25T12:02:51.987Z,1.60
2019-01-25T12:05:22.040Z,1.90
2019-01-25T12:07:50.555Z,2.00
2019-01-25T12:10:21.615Z,1.67
2019-01-25T12:12:50.152Z,1.50
2019-01-25T12:15:18.574Z,1.63
2019-01-25T12:17:47.046Z,1.67
2019-01-25T12:20:20.495Z,1.43
2019-01-25T12:22:49.019Z,1.90
2019-01-25T12:25:17.495Z,1.70
2019-01-25T12:27:45.881Z,1.77
2019-01-25T12:30:28.785Z,1.40
2019-01-25T12:32:57.479Z,1.53
2019-01-25T12:35:27.736Z,1.63
2019-01-25T12:37:56.062Z,1.50
2019-01-25T12:40:24.422Z,1.33
2019-01-25T12:42:52.807Z,1.80
2019-01-25T12:45:31.455Z,1.57
2019-01-25T12:47:59.778Z,1.53
2019-01-25T12:50:31.395Z,1.33
2019-01-25T12:53:01.046Z,1.70
2019-01-25T12:55:32.696Z,1.47
2019-01-25T12:57:59.573Z,1.33
2019-01-25T13:00:29.685Z,1.60
2019-01-25T13:02:58.038Z,1.53
2019-01-25T13:05:26.324Z,1.90
2019-01-25T13:07:54.731Z,1.87
2019-01-25T13:10:25.262Z,1.80
2019-01-25T13:13:01.068Z,1.63
2019-01-25T13:15:29.605Z,1.67
2019-01-25T13:17:58.091Z,1.50
2019-01-25T13:20:30.553Z,1.47
2019-01-25T13:22:58.910Z,1.60
2019-01-25T13:25:27.346Z,1.37
2019-01-25T13:27:55.767Z,1.63
2019-01-25T13:30:29.803Z,1.40
2019-01-25T13:32:58.235Z,1.33
2019-01-25T13:35:26.623Z,1.60
2019-01-25T13:37:55.013Z,1.40
2019-01-25T13:40:25.311Z,1.43
2019-01-25T13:42:53.750Z,1.50
2019-01-25T13:45:23.062Z,1.60
2019-01-25T13:47:51.522Z,1.40
2019-01-25T13:50:24.941Z,1.60
2019-01-25T13:52:53.495Z,1.80
2019-01-25T13:55:21.865Z,1.70
2019-01-25T13:57:50.234Z,1.10
2019-01-25T14:00:27.753Z,1.67
2019-01-25T14:02:56.153Z,1.70
2019-01-25T14:05:24.706Z,1.63
2019-01-25T14:07:53.196Z,1.60
2019-01-25T14:10:27.710Z,1.50
2019-01-25T14:12:56.022Z,1.30
2019-01-25T14:15:24.311Z,1.70
2019-01-25T14:17:52.759Z,1.63
2019-01-25T14:20:26.318Z,1.60
2019-01-25T14:22:54.620Z,4.30
2019-01-25T14:25:22.927Z,3.90
2019-01-25T14:27:51.248Z,4.27
2019-01-25T14:30:28.884Z,4.97
2019-01-25T14:32:57.162Z,4.10
2019-01-25T14:35:25.450Z,5.07
2019-01-25T14:37:53.762Z,4.17
2019-01-25T14:40:22.119Z,3.53
2019-01-25T14:42:50.404Z,3.60
2019-01-25T14:45:20.206Z,3.93
2019-01-25T14:47:48.636Z,2.93
2019-01-25T14:50:25.402Z,3.23
2019-01-25T14:52:53.896Z,2.80
2019-01-25T14:55:22.193Z,3.50
2019-01-25T14:57:50.560Z,3.00
2019-01-25T15:00:18.922Z,3.10
2019-01-25T15:02:47.210Z,3.10
2019-01-25T15:05:17.531Z,2.63
2019-01-25T15:07:45.860Z,2.63
2019-01-25T15:10:16.472Z,2.60
2019-01-25T15:12:45.230Z,2.50
2019-01-25T15:15:14.634Z,2.60
2019-01-25T15:17:43.121Z,2.70
2019-01-25T15:20:14.679Z,2.23
2019-01-25T15:22:43.003Z,2.67
2019-01-25T15:25:11.372Z,2.03
2019-01-25T15:27:39.771Z,2.37
2019-01-25T15:30:11.393Z,2.80
2019-01-25T15:32:39.754Z,2.27
2019-01-25T15:35:10.407Z,2.00
2019-01-25T15:37:38.800Z,2.57
2019-01-25T15:40:10.374Z,2.00
2019-01-25T15:42:38.866Z,2.43
2019-01-25T15:45:10.359Z,2.67
2019-01-25T15:47:38.659Z,2.07
2019-01-25T15:50:16.188Z,2.50
2019-01-25T15:52:44.476Z,2.20
2019-01-25T15:55:12.861Z,2.10
2019-01-25T15:57:41.370Z,2.10
2019-01-25T16:00:13.687Z,1.80
2019-01-25T16:02:42.018Z,1.70
2019-01-25T16:05:12.705Z,2.20
2019-01-25T16:07:41.113Z,2.37
2019-01-25T16:10:20.643Z,1.60
2019-01-25T16:12:49.639Z,1.87
2019-01-25T16:15:23.709Z,1.70
2019-01-25T16:17:52.182Z,2.27
2019-01-25T16:20:20.679Z,1.73
2019-01-25T16:22:50.932Z,2.00
2019-01-25T16:25:21.759Z,1.93
2019-01-25T16:27:50.111Z,1.77
2019-01-25T16:30:21.004Z,2.00
2019-01-25T16:32:49.391Z,2.10
2019-01-25T16:35:17.701Z,1.80
2019-01-25T16:37:46.187Z,1.90
2019-01-25T16:40:16.744Z,2.10
2019-01-25T16:42:45.113Z,1.93
2019-01-25T16:45:18.939Z,1.80
2019-01-25T16:47:47.246Z,2.00
2019-01-25T16:50:23.408Z,1.70
2019-01-25T16:52:46.017Z,1.53
2019-01-25T16:55:15.766Z,2.07
2019-01-25T16:57:44.116Z,1.67
2019-01-25T17:00:18.376Z,1.90
2019-01-25T17:02:46.755Z,1.60
2019-01-25T17:05:15.481Z,1.60
2019-01-25T17:07:43.915Z,1.67
2019-01-25T17:10:12.809Z,1.40
2019-01-25T17:12:41.247Z,1.83
2019-01-25T17:15:10.983Z,1.97
2019-01-25T17:17:39.266Z,1.80
2019-01-25T17:20:20.082Z,2.00
2019-01-25T17:22:46.534Z,2.23
2019-01-25T17:25:15.242Z,2.10
2019-01-25T17:27:43.685Z,1.60
2019-01-25T17:30:31.558Z,1.67
2019-01-25T17:33:00.939Z,1.77
2019-01-25T17:35:29.974Z,1.90
2019-01-25T17:37:58.351Z,1.40
2019-01-25T17:40:29.978Z,1.90
2019-01-25T17:42:58.282Z,2.13
2019-01-25T17:45:26.597Z,1.80
2019-01-25T17:47:54.965Z,1.90
2019-01-25T17:50:23.402Z,1.80
2019-01-25T17:52:51.750Z,2.10
2019-01-25T17:55:20.066Z,1.90
2019-01-25T17:57:48.602Z,2.07
2019-01-25T18:00:24.094Z,2.27
2019-01-25T18:02:52.444Z,2.37
2019-01-25T18:05:20.796Z,2.27
2019-01-25T18:07:49.255Z,2.50
2019-01-25T18:10:19.580Z,2.00
2019-01-25T18:12:47.966Z,2.30
2019-01-25T18:15:17.762Z,2.20
2019-01-25T18:17:46.058Z,2.27
2019-01-25T18:20:19.603Z,1.83
2019-01-25T18:22:47.919Z,1.73
2019-01-25T18:25:28.294Z,1.90
2019-01-25T18:28:01.934Z,2.20
2019-01-25T18:30:36.934Z,1.93
2019-01-25T18:33:05.316Z,2.10
2019-01-25T18:35:33.687Z,2.00
2019-01-25T18:38:02.072Z,2.57
2019-01-25T18:40:30.444Z,2.03
2019-01-25T18:42:58.732Z,2.93
2019-01-25T18:45:27.028Z,3.47
2019-01-25T18:47:55.356Z,3.77
2019-01-25T18:50:23.728Z,3.17
2019-01-25T18:52:52.146Z,3.90
2019-01-25T18:55:22.973Z,3.40
2019-01-25T18:57:51.328Z,3.37
2019-01-25T19:00:21.383Z,3.00
2019-01-25T19:02:49.849Z,2.30
2019-01-25T19:05:18.266Z,2.67
2019-01-25T19:07:46.545Z,2.67
2019-01-25T19:10:18.110Z,2.50
2019-01-25T19:12:46.483Z,2.60
2019-01-25T19:15:26.994Z,2.47
2019-01-25T19:17:55.379Z,2.70
2019-01-25T19:20:23.754Z,2.97
2019-01-25T19:22:52.137Z,2.57
2019-01-25T19:25:20.615Z,2.40
2019-01-25T19:27:48.911Z,2.70
2019-01-25T19:30:29.175Z,1.80
2019-01-25T19:32:57.530Z,3.23
2019-01-25T19:35:25.836Z,2.50
2019-01-25T19:37:54.144Z,3.33
2019-01-25T19:40:25.736Z,3.50
2019-01-25T19:42:54.155Z,3.37
2019-01-25T19:45:22.540Z,3.87
2019-01-25T19:47:50.892Z,3.70
2019-01-25T19:50:22.167Z,3.13
2019-01-25T19:52:50.471Z,3.23
2019-01-25T19:55:24.358Z,3.00
2019-01-25T19:57:52.738Z,2.60
2019-01-25T20:00:29.887Z,3.00
2019-01-25T20:02:58.180Z,3.77
2019-01-25T20:05:28.824Z,2.53
2019-01-25T20:07:57.125Z,2.97
2019-01-25T20:10:25.466Z,2.20
2019-01-25T20:12:53.766Z,2.97
2019-01-25T20:15:23.971Z,2.60
2019-01-25T20:17:52.244Z,2.70
2019-01-25T20:20:22.860Z,2.70
2019-01-25T20:22:51.184Z,2.27
2019-01-25T20:25:19.683Z,2.83
2019-01-25T20:27:48.092Z,2.40
2019-01-25T20:30:25.325Z,2.00
2019-01-25T20:32:53.631Z,2.70
2019-01-25T20:35:24.715Z,2.30
2019-01-25T20:37:53.262Z,2.50
2019-01-25T20:40:26.442Z,2.00
2019-01-25T20:42:54.826Z,2.20
2019-01-25T20:45:28.563Z,2.47
2019-01-25T20:47:57.063Z,2.00
2019-01-25T20:50:27.453Z,2.50
2019-01-25T20:52:55.841Z,2.33
2019-01-25T20:55:24.731Z,2.70
2019-01-25T20:57:53.468Z,2.53
2019-01-25T21:00:36.508Z,2.10
2019-01-25T21:03:06.495Z,2.03
2019-01-25T21:05:34.948Z,2.37
2019-01-25T21:08:03.332Z,2.17
2019-01-25T21:10:31.710Z,2.37
2019-01-25T21:13:00.093Z,2.13
2019-01-25T21:15:35.016Z,2.13
2019-01-25T21:17:59.191Z,2.13
2019-01-25T21:20:33.092Z,2.40
2019-01-25T21:23:01.535Z,2.20
2019-01-25T21:25:29.982Z,2.03
2019-01-25T21:27:58.366Z,2.30
2019-01-25T21:30:32.215Z,2.57
2019-01-25T21:33:00.591Z,2.20
2019-01-25T21:35:28.871Z,2.00
2019-01-25T21:37:57.186Z,2.23
2019-01-25T21:40:30.631Z,2.20
2019-01-25T21:42:58.931Z,2.30
2019-01-25T21:45:29.471Z,2.03
2019-01-25T21:47:58.048Z,2.00
2019-01-25T21:50:31.924Z,2.30
2019-01-25T21:53:00.220Z,2.93
2019-01-25T21:55:28.601Z,3.20
2019-01-25T21:57:56.976Z,2.87
2019-01-25T22:00:31.326Z,3.07
2019-01-25T22:02:59.703Z,3.37
2019-01-25T22:05:28.099Z,2.80
2019-01-25T22:07:56.456Z,3.10
2019-01-25T22:10:33.333Z,2.83
2019-01-25T22:13:01.659Z,2.30
2019-01-25T22:15:29.999Z,2.53
2019-01-25T22:17:58.299Z,2.63
2019-01-25T22:20:28.691Z,2.10
2019-01-25T22:22:57.111Z,3.00
2019-01-25T22:25:25.410Z,2.23
2019-01-25T22:27:54.723Z,2.50
2019-01-25T22:30:27.702Z,2.50
2019-01-25T22:32:56.087Z,2.20
2019-01-25T22:35:24.531Z,2.07
2019-01-25T22:37:53.234Z,2.33
2019-01-25T22:40:24.674Z,2.13
2019-01-25T22:42:53.035Z,2.23
2019-01-25T22:45:23.819Z,2.30
2019-01-25T22:47:52.203Z,2.37
2019-01-25T22:50:22.791Z,2.17
2019-01-25T22:52:51.066Z,2.17
2019-01-25T22:55:20.922Z,2.00
2019-01-25T22:57:49.421Z,1.80
2019-01-25T23:00:55.970Z,1.80
2019-01-25T23:03:36.324Z,1.83
2019-01-25T23:06:10.455Z,1.83
2019-01-25T23:08:38.811Z,1.90
2019-01-25T23:11:07.090Z,1.73
2019-01-25T23:13:35.438Z,1.80
2019-01-25T23:16:06.437Z,1.70
2019-01-25T23:18:33.890Z,1.70
2019-01-25T23:21:02.200Z,1.80
2019-01-25T23:23:30.479Z,2.00
2019-01-25T23:25:58.771Z,1.67
2019-01-25T23:28:27.087Z,1.90
2019-01-25T23:30:55.438Z,1.83
2019-01-25T23:33:23.733Z,1.80
2019-01-25T23:35:52.102Z,1.53
2019-01-25T23:38:20.478Z,1.60
2019-01-25T23:40:48.831Z,2.03
2019-01-25T23:43:17.150Z,1.73
2019-01-25T23:45:45.524Z,1.57
2019-01-25T23:48:13.870Z,1.50
2019-01-25T23:50:42.191Z,1.80
2019-01-25T23:53:10.557Z,1.80
2019-01-25T23:55:38.905Z,1.73
2019-01-25T23:58:07.302Z,1.70
